createdAt,value
2019-04-21T00:01:34.702Z,8.08
2019-04-21T00:04:12.442Z,8.03
2019-04-21T00:06:48.168Z,7.98
2019-04-21T00:09:26.074Z,7.94
2019-04-21T00:11:57.169Z,7.91
2019-04-21T00:14:18.132Z,7.87
2019-04-21T00:16:45.426Z,7.82
2019-04-21T00:19:14.491Z,7.80
2019-04-21T00:21:45.232Z,7.77
2019-04-21T00:24:24.264Z,7.73
2019-04-21T00:27:04.107Z,7.69
2019-04-21T00:29:38.466Z,7.65
2019-04-21T00:32:03.391Z,7.62
2019-04-21T00:34:19.457Z,7.58
2019-04-21T00:37:00.157Z,7.55
2019-04-21T00:39:49.574Z,7.52
2019-04-21T00:42:12.957Z,7.49
2019-04-21T00:44:29.842Z,7.46
2019-04-21T00:47:03.075Z,7.42
2019-04-21T00:49:37.667Z,7.38
2019-04-21T00:52:28.837Z,7.35
2019-04-21T00:55:05.992Z,7.31
2019-04-21T00:57:25.212Z,7.27
2019-04-21T00:59:52.266Z,7.24
2019-04-21T01:02:26.125Z,7.18
2019-04-21T01:05:02.078Z,7.17
2019-04-21T01:07:26.928Z,7.15
2019-04-21T01:09:49.671Z,7.12
2019-04-21T01:12:26.828Z,7.10
2019-04-21T01:15:04.670Z,7.07
2019-04-21T01:17:30.270Z,7.04
2019-04-21T01:19:56.032Z,6.99
2019-04-21T01:22:08.945Z,6.94
2019-04-21T01:24:42.943Z,6.90
2019-04-21T01:27:21.650Z,6.86
2019-04-21T01:30:02.961Z,6.81
2019-04-21T01:32:29.545Z,6.77
2019-04-21T01:35:02.478Z,6.73
2019-04-21T01:37:41.164Z,6.66
2019-04-21T01:40:14.009Z,6.66
2019-04-21T01:42:33.524Z,6.65
2019-04-21T01:45:00.043Z,6.63
2019-04-21T01:47:29.325Z,6.60
2019-04-21T01:49:53.320Z,6.57
2019-04-21T01:55:06.013Z,6.51
2019-04-21T01:57:37.732Z,6.48
2019-04-21T02:00:04.044Z,6.44
2019-04-21T02:02:46.221Z,6.42
2019-04-21T02:05:18.778Z,6.39
2019-04-21T02:07:44.321Z,6.37
2019-04-21T02:10:22.663Z,6.36
2019-04-21T02:12:46.034Z,6.32
2019-04-21T02:15:17.085Z,6.28
2019-04-21T02:17:43.733Z,6.26
2019-04-21T02:20:09.410Z,6.24
2019-04-21T02:23:06.415Z,6.19
2019-04-21T02:25:22.879Z,6.16
2019-04-21T02:27:54.755Z,6.13
2019-04-21T02:30:33.523Z,6.08
2019-04-21T02:33:02.803Z,6.03
2019-04-21T02:35:38.493Z,5.99
2019-04-21T02:38:01.198Z,5.94
2019-04-21T02:40:33.960Z,5.90
2019-04-21T02:43:07.104Z,5.87
2019-04-21T02:45:30.196Z,5.82
2019-04-21T02:48:04.644Z,5.78
2019-04-21T02:50:34.023Z,5.73
2019-04-21T02:53:13.933Z,5.72
2019-04-21T02:55:31.163Z,5.68
2019-04-21T02:58:09.995Z,5.66
2019-04-21T03:03:13.454Z,5.57
2019-04-21T03:05:54.688Z,5.57
2019-04-21T03:08:25.911Z,5.53
2019-04-21T03:13:29.153Z,5.49
2019-04-21T03:18:24.361Z,5.45
2019-04-21T03:21:00.956Z,5.44
2019-04-21T03:23:31.259Z,5.42
2019-04-21T03:25:51.986Z,5.40
2019-04-21T03:40:57.302Z,5.33
2019-04-21T03:43:36.441Z,5.31
2019-04-21T03:45:58.826Z,5.30
2019-04-21T03:48:35.756Z,5.30
2019-04-21T03:51:04.847Z,5.26
2019-04-21T03:53:31.307Z,5.26
2019-04-21T03:56:12.452Z,5.24
2019-04-21T03:58:53.054Z,5.25
2019-04-21T04:01:08.273Z,5.23
2019-04-21T04:06:20.549Z,5.19
2019-04-21T04:08:59.009Z,5.19
2019-04-21T04:11:31.689Z,5.18
2019-04-21T04:14:04.094Z,5.16
2019-04-21T04:19:05.884Z,5.16
2019-04-21T04:26:37.005Z,5.15
2019-04-21T04:29:06.242Z,5.17
2019-04-21T04:34:04.758Z,5.17
2019-04-21T04:39:37.987Z,5.20
2019-04-21T04:42:03.342Z,5.22
2019-04-21T04:44:51.542Z,5.24
2019-04-21T04:47:05.843Z,5.27
2019-04-21T04:54:41.821Z,5.34
2019-04-21T04:57:08.208Z,5.39
2019-04-21T05:02:14.898Z,5.44
2019-04-21T05:04:35.476Z,5.48
2019-04-21T05:09:30.831Z,5.57
2019-04-21T05:12:00.124Z,5.61
2019-04-21T05:14:30.429Z,5.67
2019-04-21T05:17:08.574Z,5.73
2019-04-21T05:19:34.726Z,5.81
2019-04-21T05:24:23.060Z,5.98
2019-04-21T05:26:53.389Z,6.07
2019-04-21T05:29:20.400Z,6.17
2019-04-21T05:32:09.300Z,6.28
2019-04-21T05:34:37.394Z,6.40
2019-04-21T05:37:18.767Z,6.53
2019-04-21T05:39:37.532Z,6.64
2019-04-21T05:42:08.142Z,6.75
2019-04-21T05:44:59.396Z,6.87
2019-04-21T05:49:52.403Z,7.09
2019-04-21T05:52:21.426Z,7.20
2019-04-21T05:54:57.448Z,7.32
2019-04-21T05:57:22.941Z,7.43
2019-04-21T05:59:53.666Z,7.56
2019-04-21T06:02:47.940Z,7.67
2019-04-21T06:05:05.877Z,7.78
2019-04-21T06:07:28.766Z,7.90
2019-04-21T06:09:59.644Z,8.00
2019-04-21T06:12:31.591Z,8.12
2019-04-21T06:15:02.598Z,8.22
2019-04-21T06:20:00.123Z,8.46
2019-04-21T06:22:30.112Z,8.58
2019-04-21T06:27:38.903Z,8.82
2019-04-21T06:30:04.168Z,8.93
2019-04-21T06:32:47.183Z,9.04
2019-04-21T06:35:23.776Z,9.18
2019-04-21T06:37:56.999Z,9.30
2019-04-21T06:40:21.347Z,9.43
2019-04-21T06:42:53.910Z,9.55
2019-04-21T06:45:21.664Z,9.69
2019-04-21T06:48:04.237Z,9.84
2019-04-21T06:50:15.833Z,9.97
2019-04-21T06:55:15.329Z,10.26
2019-04-21T06:57:45.674Z,10.42
2019-04-21T07:00:12.041Z,10.57
2019-04-21T07:02:52.121Z,10.72
2019-04-21T07:05:24.745Z,10.86
2019-04-21T07:08:05.764Z,11.02
2019-04-21T07:10:24.194Z,11.15
2019-04-21T07:12:48.288Z,11.30
2019-04-21T07:15:25.293Z,11.44
2019-04-21T07:17:53.993Z,11.57
2019-04-21T07:20:21.541Z,11.70
2019-04-21T07:22:55.170Z,11.82
2019-04-21T07:25:22.567Z,11.94
2019-04-21T07:27:52.652Z,12.07
2019-04-21T07:30:31.530Z,12.19
2019-04-21T07:33:05.587Z,12.32
2019-04-21T07:35:26.535Z,12.43
2019-04-21T07:37:57.684Z,12.55
2019-04-21T07:40:23.137Z,12.69
2019-04-21T07:42:57.649Z,12.82
2019-04-21T07:45:26.571Z,12.95
2019-04-21T07:48:16.836Z,13.08
2019-04-21T07:51:04.294Z,13.22
2019-04-21T07:53:49.422Z,13.38
2019-04-21T07:56:06.502Z,13.52
2019-04-21T07:58:53.766Z,13.63
2019-04-21T08:01:20.171Z,13.73
2019-04-21T08:04:14.807Z,13.83
2019-04-21T08:06:20.728Z,13.94
2019-04-21T08:08:51.060Z,14.06
2019-04-21T08:11:15.280Z,14.19
2019-04-21T08:13:55.129Z,14.28
2019-04-21T08:16:24.444Z,14.39
2019-04-21T08:18:52.366Z,14.49
2019-04-21T08:21:24.631Z,14.59
2019-04-21T08:23:48.513Z,14.71
2019-04-21T08:26:24.570Z,14.84
2019-04-21T08:28:52.102Z,14.94
2019-04-21T08:38:58.264Z,15.40
2019-04-21T08:41:27.728Z,15.48
2019-04-21T08:43:56.124Z,15.59
2019-04-21T08:46:31.549Z,15.70
2019-04-21T08:49:04.333Z,15.79
2019-04-21T08:51:33.294Z,15.92
2019-04-21T08:54:03.923Z,16.06
2019-04-21T08:56:48.303Z,16.18
2019-04-21T08:59:25.523Z,16.29
2019-04-21T09:01:55.573Z,16.41
2019-04-21T09:04:29.007Z,16.54
2019-04-21T09:07:19.630Z,16.71
2019-04-21T09:09:38.131Z,16.87
2019-04-21T09:12:04.446Z,17.00
2019-04-21T09:14:30.924Z,17.12
2019-04-21T09:16:56.547Z,17.23
2019-04-21T09:19:48.336Z,17.33
2019-04-21T09:22:05.686Z,17.42
2019-04-21T09:24:35.162Z,17.53
2019-04-21T09:27:06.409Z,17.65
2019-04-21T09:29:26.533Z,17.83
2019-04-21T09:31:48.499Z,17.99
2019-04-21T09:34:24.910Z,18.08
2019-04-21T09:36:52.118Z,18.15
2019-04-21T09:39:21.992Z,18.22
2019-04-21T09:41:53.496Z,18.28
2019-04-21T09:44:30.202Z,18.38
2019-04-21T09:47:01.024Z,18.52
2019-04-21T09:49:31.673Z,18.61
2019-04-21T09:52:02.259Z,18.69
2019-04-21T09:54:45.231Z,18.80
2019-04-21T09:57:25.740Z,18.89
2019-04-21T10:00:02.199Z,18.97
2019-04-21T10:02:34.291Z,19.08
2019-04-21T10:05:09.952Z,19.19
2019-04-21T10:07:50.816Z,19.32
2019-04-21T10:10:27.607Z,19.45
2019-04-21T10:13:05.056Z,19.53
2019-04-21T10:15:37.859Z,19.59
2019-04-21T10:18:15.129Z,19.68
2019-04-21T10:20:51.509Z,19.75
2019-04-21T10:23:27.437Z,19.77
2019-04-21T10:25:59.045Z,19.81
2019-04-21T10:28:35.044Z,19.85
2019-04-21T10:31:14.420Z,19.91
2019-04-21T10:33:52.650Z,19.95
2019-04-21T10:36:26.849Z,19.99
2019-04-21T10:38:57.619Z,20.04
2019-04-21T10:41:29.834Z,20.08
2019-04-21T10:44:07.213Z,20.15
2019-04-21T10:46:40.581Z,20.23
2019-04-21T10:49:12.926Z,20.32
2019-04-21T10:51:46.741Z,20.39
2019-04-21T10:54:22.039Z,20.48
2019-04-21T10:56:52.618Z,20.53
2019-04-21T10:59:26.910Z,20.61
2019-04-21T11:02:00.996Z,20.68
2019-04-21T11:04:37.379Z,20.73
2019-04-21T11:07:15.490Z,20.77
2019-04-21T11:09:44.326Z,20.82
2019-04-21T11:12:17.621Z,20.86
2019-04-21T11:14:52.014Z,20.92
2019-04-21T11:17:25.935Z,21.02
2019-04-21T11:19:59.084Z,21.12
2019-04-21T11:22:40.045Z,21.23
2019-04-21T11:25:15.857Z,21.32
2019-04-21T11:27:58.801Z,21.41
2019-04-21T11:30:31.738Z,21.51
2019-04-21T11:33:07.065Z,21.62
2019-04-21T11:35:41.353Z,21.75
2019-04-21T11:38:52.696Z,21.91
2019-04-21T11:41:08.080Z,21.99
2019-04-21T11:43:39.155Z,22.02
2019-04-21T11:46:12.645Z,22.07
2019-04-21T11:48:48.318Z,22.12
2019-04-21T11:51:30.941Z,22.20
2019-04-21T11:54:04.600Z,22.29
2019-04-21T11:56:48.537Z,22.44
2019-04-21T11:59:19.622Z,22.53
2019-04-21T12:01:55.324Z,22.64
2019-04-21T12:04:25.576Z,22.75
2019-04-21T12:06:57.875Z,22.94
2019-04-21T12:09:30.973Z,23.08
2019-04-21T12:12:03.423Z,23.15
2019-04-21T12:14:41.978Z,23.17
2019-04-21T12:17:14.321Z,23.21
2019-04-21T12:19:52.649Z,23.24
2019-04-21T12:22:29.969Z,23.27
2019-04-21T12:24:58.486Z,23.27
2019-04-21T12:27:32.217Z,23.25
2019-04-21T12:30:03.915Z,23.23
2019-04-21T12:32:38.583Z,23.29
2019-04-21T12:35:17.639Z,23.41
2019-04-21T12:37:49.359Z,23.49
2019-04-21T12:40:30.635Z,23.54
2019-04-21T12:43:00.949Z,23.57
2019-04-21T12:45:31.614Z,23.54
2019-04-21T12:48:08.246Z,23.56
2019-04-21T12:50:43.711Z,23.64
2019-04-21T12:53:25.560Z,23.73
2019-04-21T12:55:57.867Z,23.78
2019-04-21T12:58:31.112Z,23.74
2019-04-21T13:01:03.038Z,23.71
2019-04-21T13:03:44.180Z,23.81
2019-04-21T13:06:15.921Z,23.94
2019-04-21T13:08:55.622Z,24.19
2019-04-21T13:11:29.283Z,24.54
2019-04-21T13:14:03.999Z,24.95
2019-04-21T13:16:34.572Z,25.38
2019-04-21T13:19:09.346Z,25.77
2019-04-21T13:21:42.379Z,26.16
2019-04-21T13:24:26.069Z,26.46
2019-04-21T13:26:59.826Z,26.63
2019-04-21T13:29:32.349Z,26.86
2019-04-21T13:32:08.909Z,27.15
2019-04-21T13:34:40.106Z,27.39
2019-04-21T13:37:12.454Z,27.53
2019-04-21T13:40:16.120Z,27.63
2019-04-21T13:42:30.177Z,27.65
2019-04-21T13:47:42.865Z,27.76
2019-04-21T13:50:17.341Z,27.78
2019-04-21T13:52:51.636Z,27.86
2019-04-21T13:55:23.506Z,27.89
2019-04-21T13:57:52.879Z,28.00
2019-04-21T14:00:37.952Z,28.16
2019-04-21T14:03:21.031Z,28.21
2019-04-21T14:05:50.656Z,28.53
2019-04-21T14:08:23.126Z,29.02
2019-04-21T14:10:55.725Z,29.30
2019-04-21T14:13:30.267Z,29.31
2019-04-21T14:16:02.229Z,29.32
2019-04-21T14:18:34.216Z,29.32
2019-04-21T14:21:04.975Z,29.10
2019-04-21T14:23:41.872Z,28.72
2019-04-21T14:26:08.678Z,28.39
2019-04-21T14:28:40.957Z,28.00
2019-04-21T14:31:12.498Z,27.77
2019-04-21T14:33:44.007Z,27.81
2019-04-21T14:36:16.767Z,28.08
2019-04-21T14:38:52.358Z,28.53
2019-04-21T14:41:28.765Z,28.97
2019-04-21T14:44:01.060Z,29.21
2019-04-21T14:46:35.003Z,29.40
2019-04-21T14:49:19.435Z,29.55
2019-04-21T14:51:54.819Z,30.02
2019-04-21T14:54:42.618Z,30.02
2019-04-21T14:57:15.552Z,30.05
2019-04-21T14:59:49.091Z,30.05
2019-04-21T15:02:20.271Z,30.38
2019-04-21T15:04:51.472Z,30.69
2019-04-21T15:07:21.440Z,30.78
2019-04-21T15:10:02.424Z,30.75
2019-04-21T15:12:25.876Z,30.76
2019-04-21T15:15:00.255Z,30.71
2019-04-21T15:17:31.597Z,30.80
2019-04-21T15:20:10.513Z,30.86
2019-04-21T15:22:39.190Z,30.58
2019-04-21T15:25:10.022Z,30.58
2019-04-21T15:27:46.714Z,30.61
2019-04-21T15:30:18.679Z,30.52
2019-04-21T15:32:48.744Z,30.55
2019-04-21T15:35:17.519Z,30.78
2019-04-21T15:37:49.865Z,30.97
2019-04-21T15:40:30.225Z,30.98
2019-04-21T15:42:52.508Z,30.84
2019-04-21T15:45:22.241Z,30.90
2019-04-21T15:47:52.324Z,31.03
2019-04-21T15:50:24.705Z,31.04
2019-04-21T15:52:57.951Z,30.86
2019-04-21T15:55:46.668Z,30.84
2019-04-21T15:58:24.849Z,30.84
2019-04-21T16:01:14.496Z,30.99
2019-04-21T16:03:44.839Z,30.99
2019-04-21T16:06:14.570Z,31.00
2019-04-21T16:08:47.496Z,30.88
2019-04-21T16:11:17.567Z,30.69
2019-04-21T16:13:47.807Z,30.57
2019-04-21T16:16:17.538Z,30.37
2019-04-21T16:18:47.871Z,29.58
2019-04-21T16:21:18.050Z,29.58
2019-04-21T16:23:49.040Z,29.49
2019-04-21T16:26:40.414Z,29.50
2019-04-21T16:29:13.415Z,29.41
2019-04-21T16:31:57.470Z,29.10
2019-04-21T16:34:43.533Z,28.92
2019-04-21T16:37:25.774Z,28.65
2019-04-21T16:40:01.257Z,28.37
2019-04-21T16:42:34.196Z,28.02
2019-04-21T16:45:10.624Z,27.65
2019-04-21T16:47:42.179Z,27.48
2019-04-21T16:50:13.926Z,27.46
2019-04-21T16:52:48.012Z,27.44
2019-04-21T16:55:35.236Z,27.32
2019-04-21T16:58:18.145Z,27.08
2019-04-21T17:00:57.554Z,26.80
2019-04-21T17:03:18.862Z,26.48
2019-04-21T17:05:48.142Z,26.15
2019-04-21T17:08:18.166Z,25.92
2019-04-21T17:10:58.965Z,25.87
2019-04-21T17:13:20.236Z,25.85
2019-04-21T17:16:07.765Z,25.79
2019-04-21T17:18:36.740Z,25.75
2019-04-21T17:20:57.642Z,25.69
2019-04-21T17:23:25.155Z,25.63
2019-04-21T17:25:55.211Z,25.58
2019-04-21T17:28:25.893Z,25.38
2019-04-21T17:30:56.202Z,25.04
2019-04-21T17:33:28.031Z,24.64
2019-04-21T17:35:56.867Z,24.20
2019-04-21T17:38:26.430Z,23.80
2019-04-21T17:41:09.452Z,23.50
2019-04-21T17:43:27.672Z,23.23
2019-04-21T17:45:59.324Z,23.01
2019-04-21T17:48:29.282Z,22.79
2019-04-21T17:51:01.253Z,22.54
2019-04-21T17:53:38.209Z,22.21
2019-04-21T17:56:23.462Z,21.80
2019-04-21T17:59:01.737Z,21.40
2019-04-21T18:01:32.060Z,21.05
2019-04-21T18:04:10.910Z,20.73
2019-04-21T18:06:36.604Z,20.46
2019-04-21T18:09:20.441Z,20.26
2019-04-21T18:11:49.438Z,20.06
2019-04-21T18:13:57.541Z,19.84
2019-04-21T18:16:35.439Z,19.62
2019-04-21T18:18:59.150Z,19.41
2019-04-21T18:21:32.906Z,19.20
2019-04-21T18:24:08.026Z,19.00
2019-04-21T18:26:46.779Z,18.82
2019-04-21T18:29:09.556Z,18.61
2019-04-21T18:31:44.564Z,18.44
2019-04-21T18:34:13.980Z,18.30
2019-04-21T18:36:48.001Z,18.18
2019-04-21T18:39:34.284Z,18.06
2019-04-21T18:42:09.409Z,17.92
2019-04-21T18:44:53.716Z,17.76
2019-04-21T18:47:31.496Z,17.60
2019-04-21T18:49:45.931Z,17.45
2019-04-21T18:52:26.732Z,17.31
2019-04-21T18:55:01.180Z,17.18
2019-04-21T18:57:27.400Z,17.05
2019-04-21T18:59:51.320Z,16.95
2019-04-21T19:02:22.315Z,16.83
2019-04-21T19:04:55.854Z,16.74
2019-04-21T19:07:37.763Z,16.63
2019-04-21T19:10:33.921Z,16.54
2019-04-21T19:13:09.130Z,16.44
2019-04-21T19:15:07.690Z,16.33
2019-04-21T19:20:13.911Z,16.12
2019-04-21T19:22:42.084Z,16.02
2019-04-21T19:25:25.343Z,15.93
2019-04-21T19:27:41.842Z,15.83
2019-04-21T19:32:41.342Z,15.66
2019-04-21T19:35:03.347Z,15.59
2019-04-21T19:37:43.004Z,15.51
2019-04-21T19:40:26.916Z,15.42
2019-04-21T19:42:51.163Z,15.33
2019-04-21T19:45:26.618Z,15.25
2019-04-21T19:54:40.925Z,15.04
2019-04-21T19:57:08.946Z,14.96
2019-04-21T19:59:44.638Z,14.87
2019-04-21T20:02:09.630Z,14.80
2019-04-21T20:04:46.648Z,14.73
2019-04-21T20:07:23.395Z,14.68
2019-04-21T20:09:57.644Z,14.63
2019-04-21T20:12:35.567Z,14.57
2019-04-21T20:15:08.064Z,14.50
2019-04-21T20:17:33.534Z,14.45
2019-04-21T20:19:46.048Z,14.38
2019-04-21T20:22:15.155Z,14.31
2019-04-21T20:24:49.998Z,14.23
2019-04-21T20:27:24.074Z,14.16
2019-04-21T20:30:03.427Z,14.09
2019-04-21T20:32:38.470Z,14.03
2019-04-21T20:35:07.146Z,13.96
2019-04-21T20:37:31.515Z,13.92
2019-04-21T20:39:56.190Z,13.85
2019-04-21T20:42:35.090Z,13.79
2019-04-21T20:45:25.231Z,13.72
2019-04-21T20:47:31.163Z,13.66
2019-04-21T20:50:03.261Z,13.60
2019-04-21T20:52:41.720Z,13.57
